Flight Track Log - Related Links

Times and Time Zones

All times are in EDT time to prevent confusion due to time zone crossing. See the N7192Y flight status page for this flight to view local times or setup timezone preferences in your user account.

Time Position Orientation Groundspeed Altitude Reporting Facility
EDT Latitude Longitude Course Direction KTS MPH feet Rate Location/Type
Thu 03:12:04 PM 39.8967 -84.2142 205° Southwest 79 91 1,300  Level Indianapolis Center
Thu 03:12:34 PM 39.8858 -84.2208 205° Southwest 85 98 1,800 725 Climbing Indianapolis Center
Thu 03:13:35 PM 39.8531 -84.2111 167° South 136 157 2,400 680 Climbing Indianapolis Center
Thu 03:14:11 PM 39.8314 -84.2011 160° South 127 146 2,900 806 Climbing Indianapolis Center
Thu 03:14:42 PM 39.8175 -84.1819 133° Southeast 138 159 3,300 774 Climbing Indianapolis Center
Thu 03:15:13 PM 39.8061 -84.1644 130° Southeast 132 152 3,700 787 Climbing Indianapolis Center
Thu 03:15:43 PM 39.8064 -84.1369 89° East 143 165 4,100 581 Climbing Indianapolis Center
Thu 03:16:15 PM 39.8108 -84.1125 77° East 139 160 4,300 600 Climbing Indianapolis Center
Thu 03:16:43 PM 39.8142 -84.0892 79° East 144 166 4,700 677 Climbing Indianapolis Center
Thu 03:17:17 PM 39.8172 -84.0597 82° East 145 167 5,000 295 Climbing Indianapolis Center
Thu 03:17:44 PM 39.8186 -84.0325 86° East 158 182 5,000 97 Level Indianapolis Center
Thu 03:18:19 PM 39.8208 -84.0006 85° East 153 176 5,100 98 Climbing Indianapolis Center
Thu 03:18:45 PM 39.8236 -83.9681 84° East 173 199 5,100  Level Indianapolis Center
Thu 03:19:21 PM 39.8258 -83.9364 85° East 167 192 5,100  Level Indianapolis Center
Thu 03:19:46 PM 39.8289 -83.9008 84° East 178 205 5,100 -97 Level Indianapolis Center
Thu 03:20:23 PM 39.8303 -83.8725 86° East 173 199 5,000  Descending Indianapolis Center
Thu 03:20:47 PM 39.8314 -83.8386 88° East 177 204 5,100 97 Climbing Indianapolis Center
Thu 03:21:25 PM 39.8336 -83.8081 85° East 175 201 5,100  Level Indianapolis Center
Thu 03:21:48 PM 39.8342 -83.7736 89° East 175 201 5,100  Level Indianapolis Center
Thu 03:22:27 PM 39.8378 -83.7322 84° East 178 205 5,100  Level Indianapolis Center
Thu 03:22:48 PM 39.8392 -83.7092 86° East 181 208 5,100  Level Indianapolis Center
Thu 03:23:29 PM 39.8428 -83.6672 84° East 178 205 5,100  Level Indianapolis Center
Thu 03:24:31 PM 39.8461 -83.6025 86° East 179 206 5,100  Level Indianapolis Center
Thu 03:25:02 PM 39.8472 -83.5689 88° East 180 207 5,100  Level Indianapolis Center
Thu 03:25:33 PM 39.8497 -83.5386 84° East 177 204 5,100  Level Indianapolis Center
Thu 03:25:51 PM 39.8511 -83.5178 85° East 178 205 5,100  Level Indianapolis Center
Thu 03:26:36 PM 39.8553 -83.4706 83° East 177 204 5,100  Level Indianapolis Center
Thu 03:26:52 PM 39.8558 -83.4503 88° East 174 200 5,100  Level Indianapolis Center
Thu 03:27:38 PM 39.8589 -83.4072 85° East 174 200 5,100 -98 Level Indianapolis Center
Thu 03:27:53 PM 39.8603 -83.3883 85° East 173 199 5,000  Descending Indianapolis Center
Thu 03:28:40 PM 39.8558 -83.3444 98° East 174 200 5,100 55 Climbing Indianapolis Center
Thu 03:29:42 PM 39.8472 -83.2828 100° East 171 197 5,100  Level Indianapolis Center
Thu 03:30:55 PM 39.8403 -83.2014 96° East 176 203 5,100  Level Indianapolis Center
Thu 03:31:46 PM 39.8367 -83.1556 96° East 174 200 5,100  Level Indianapolis Center
Thu 03:32:48 PM 39.8306 -83.0825 96° East 173 199 5,100  Level Indianapolis Center
Thu 03:33:57 PM 39.8239 -83.0119 97° East 171 197 5,100  Level Indianapolis Center
Thu 03:34:52 PM 39.8197 -82.9581 96° East 172 198 5,100  Level Indianapolis Center
Thu 03:35:54 PM 39.8294 -82.8961 78° East 172 198 5,100  Level Indianapolis Center
Thu 03:37:00 PM 39.8367 -82.8233 83° East 179 206 5,100  Level Indianapolis Center
Thu 03:37:58 PM 39.8389 -82.7681 87° East 174 200 5,100  Level Indianapolis Center
Thu 03:39:00 PM 39.8450 -82.7036 83° East 176 203 5,100  Level Indianapolis Center
Thu 03:40:09 PM 39.8494 -82.6294 86° East 171 197 5,100  Level Indianapolis Center
Thu 03:41:05 PM 39.8539 -82.5686 85° East 172 198 5,100  Level Indianapolis Center
Thu 03:42:07 PM 39.8578 -82.5056 85° East 173 199 5,100  Level Indianapolis Center
Thu 03:43:09 PM 39.8639 -82.4414 83° East 175 201 5,100  Level Indianapolis Center
Thu 03:44:11 PM 39.8658 -82.3792 88° East 172 198 5,100  Level Indianapolis Center
Thu 03:45:13 PM 39.8706 -82.3172 84° East 171 197 5,100  Level Indianapolis Center
Thu 03:46:15 PM 39.8744 -82.2531 85° East 176 203 5,100  Level Indianapolis Center
Thu 03:47:17 PM 39.8800 -82.1789 84° East 175 201 5,100  Level Indianapolis Center
Thu 03:48:19 PM 39.8839 -82.1172 85° East 172 198 5,100  Level Indianapolis Center
Thu 03:49:21 PM 39.8881 -82.0550 85° East 171 197 5,100  Level Indianapolis Center
Thu 03:50:23 PM 39.8931 -81.9914 84° East 175 201 5,100  Level Indianapolis Center
Thu 03:51:25 PM 39.8958 -81.9292 87° East 172 198 5,100  Level Indianapolis Center
Thu 03:52:27 PM 39.8989 -81.8683 86° East 168 193 5,100  Level Indianapolis Center
Thu 03:53:29 PM 39.9036 -81.8064 84° East 170 196 5,100  Level Indianapolis Center
Thu 03:54:31 PM 39.9078 -81.7358 86° East 167 192 5,100  Level Indianapolis Center
Thu 03:55:33 PM 39.9111 -81.6739 86° East 168 193 5,100  Level Indianapolis Center
Thu 03:56:35 PM 39.9147 -81.6119 86° East 169 194 5,100  Level Indianapolis Center
Thu 03:57:37 PM 39.9186 -81.5494 85° East 171 197 5,100  Level Indianapolis Center
Thu 03:58:39 PM 39.9225 -81.4875 85° East 170 196 5,100  Level Indianapolis Center
Thu 03:59:42 PM 39.9253 -81.4283 86° East 164 189 5,100  Level Indianapolis Center
Thu 04:00:44 PM 39.9300 -81.3600 85° East 167 192 5,100  Level Indianapolis Center
Thu 04:01:46 PM 39.9342 -81.2989 85° East 168 193 5,100  Level Indianapolis Center
Thu 04:02:48 PM 39.9364 -81.2394 87° East 167 192 5,100  Level Indianapolis Center
Thu 04:03:50 PM 39.9408 -81.1817 84° East 164 189 5,100  Level Indianapolis Center
Thu 04:04:52 PM 39.9444 -81.1236 85° East 162 186 5,100  Level Indianapolis Center
Thu 04:05:15 PM 39.9492 -81.0894 80° East 160 184 5,100  Level Cleveland Center
Thu 04:06:15 PM 39.9517 -81.0272 87° East 160 184 5,100  Level Cleveland Center
Thu 04:07:15 PM 39.9561 -80.9675 84° East 160 184 5,100  Level Cleveland Center

Login

Don't have an account? Register now (free) for customized features, flight alerts, and more!